createdAt,value
2022-09-15T00:00:31.676Z,13.36
2022-09-15T00:01:31.875Z,13.36
2022-09-15T00:02:32.061Z,13.36
2022-09-15T00:03:32.076Z,13.36
2022-09-15T00:04:32.297Z,13.36
2022-09-15T00:05:32.378Z,13.35
2022-09-15T00:06:32.466Z,13.35
2022-09-15T00:07:32.593Z,13.35
2022-09-15T00:08:32.725Z,13.34
2022-09-15T00:09:32.966Z,13.34
2022-09-15T00:10:32.995Z,13.34
2022-09-15T00:11:33.144Z,13.33
2022-09-15T00:12:33.233Z,13.32
2022-09-15T00:13:33.665Z,13.32
2022-09-15T00:14:33.487Z,13.32
2022-09-15T00:15:33.613Z,13.32
2022-09-15T00:16:33.804Z,13.31
2022-09-15T00:17:33.913Z,13.31
2022-09-15T00:18:34.186Z,13.30
2022-09-15T00:19:34.264Z,13.30
2022-09-15T00:20:34.284Z,13.31
2022-09-15T00:21:34.422Z,13.30
2022-09-15T00:22:34.563Z,13.30
2022-09-15T00:23:34.832Z,13.31
2022-09-15T00:24:34.840Z,13.31
2022-09-15T00:25:34.924Z,13.32
2022-09-15T00:26:35.040Z,13.31
2022-09-15T00:27:35.170Z,13.30
2022-09-15T00:28:35.424Z,13.29
2022-09-15T00:29:35.449Z,13.29
2022-09-15T00:30:35.641Z,13.28
2022-09-15T00:31:35.952Z,13.28
2022-09-15T00:32:35.821Z,13.26
2022-09-15T00:33:36.200Z,13.25
2022-09-15T00:34:36.209Z,13.24
2022-09-15T00:35:36.221Z,13.23
2022-09-15T00:36:36.362Z,13.21
2022-09-15T00:37:36.499Z,13.20
2022-09-15T00:38:36.719Z,13.19
2022-09-15T00:39:36.771Z,13.18
2022-09-15T00:40:36.909Z,13.17
2022-09-15T00:41:37.101Z,13.16
2022-09-15T00:42:37.163Z,13.15
2022-09-15T00:43:37.309Z,13.14
2022-09-15T00:44:37.467Z,13.13
2022-09-15T00:45:37.610Z,13.12
2022-09-15T00:46:37.759Z,13.12
2022-09-15T00:47:37.777Z,13.11
2022-09-15T00:48:37.912Z,13.10
2022-09-15T00:49:38.056Z,13.10
2022-09-15T00:50:38.196Z,13.09
2022-09-15T00:51:38.446Z,13.08
2022-09-15T00:52:38.476Z,13.08
2022-09-15T00:53:38.596Z,13.07
2022-09-15T00:54:38.749Z,13.06
2022-09-15T00:55:38.836Z,13.05
2022-09-15T00:56:39.085Z,13.05
2022-09-15T00:57:39.115Z,13.04
2022-09-15T00:58:39.265Z,13.04
2022-09-15T00:59:39.414Z,13.03
2022-09-15T01:00:39.545Z,13.02
2022-09-15T01:01:39.737Z,13.01
2022-09-15T01:02:39.863Z,13.00
2022-09-15T01:03:39.988Z,12.99
2022-09-15T01:04:40.072Z,12.98
2022-09-15T01:05:40.196Z,12.97
2022-09-15T01:06:40.334Z,12.96
2022-09-15T01:07:40.453Z,12.94
2022-09-15T01:08:40.697Z,12.94
2022-09-15T01:09:40.731Z,12.93
2022-09-15T01:10:40.852Z,12.93
2022-09-15T01:11:41.054Z,12.92
2022-09-15T01:12:41.082Z,12.92
2022-09-15T01:13:41.352Z,12.92
2022-09-15T01:14:41.470Z,12.92
2022-09-15T01:15:41.473Z,12.91
2022-09-15T01:16:41.685Z,12.91
2022-09-15T01:17:41.761Z,12.90
2022-09-15T01:18:41.975Z,12.90
2022-09-15T01:19:42.013Z,12.90
2022-09-15T01:20:42.160Z,12.90
2022-09-15T01:21:42.288Z,12.90
2022-09-15T01:22:42.610Z,12.89
2022-09-15T01:23:42.532Z,12.89
2022-09-15T01:24:42.677Z,12.89
2022-09-15T01:25:42.791Z,12.89
2022-09-15T01:26:42.937Z,12.89
2022-09-15T01:27:43.305Z,12.89
2022-09-15T01:28:43.890Z,12.89
2022-09-15T01:29:43.369Z,12.89
2022-09-15T01:30:43.446Z,12.89
2022-09-15T01:31:43.635Z,12.88
2022-09-15T01:32:43.708Z,12.88
2022-09-15T01:33:43.900Z,12.88
2022-09-15T01:34:43.979Z,12.88
2022-09-15T01:35:44.109Z,12.89
2022-09-15T01:36:44.236Z,12.89
2022-09-15T01:37:44.367Z,12.89
2022-09-15T01:38:44.725Z,12.89
2022-09-15T01:39:44.660Z,12.89
2022-09-15T01:40:44.726Z,12.88
2022-09-15T01:41:44.860Z,12.87
2022-09-15T01:42:45.007Z,12.86
2022-09-15T01:43:45.216Z,12.86
2022-09-15T01:44:45.325Z,12.86
2022-09-15T01:45:45.479Z,12.86
2022-09-15T01:46:45.526Z,12.85
2022-09-15T01:47:45.656Z,12.85
2022-09-15T01:48:45.876Z,12.85
2022-09-15T01:49:46.053Z,12.84
2022-09-15T01:50:46.044Z,12.84
2022-09-15T01:51:46.164Z,12.84
2022-09-15T01:52:46.334Z,12.84
2022-09-15T01:53:46.528Z,12.83
2022-09-15T01:54:46.574Z,12.83
2022-09-15T01:55:46.663Z,12.82
2022-09-15T01:56:46.788Z,12.81
2022-09-15T01:57:46.923Z,12.80
2022-09-15T01:58:47.172Z,12.79
2022-09-15T01:59:47.213Z,12.78
2022-09-15T02:00:47.348Z,12.76
2022-09-15T02:01:47.489Z,12.75
2022-09-15T02:02:47.593Z,12.75
2022-09-15T02:03:47.852Z,12.74
2022-09-15T02:04:47.852Z,12.73
2022-09-15T02:05:47.971Z,12.72
2022-09-15T02:06:48.120Z,12.71
2022-09-15T02:07:48.269Z,12.70
2022-09-15T02:08:48.391Z,12.70
2022-09-15T02:09:48.551Z,12.69
2022-09-15T02:10:48.643Z,12.69
2022-09-15T02:11:48.771Z,12.68
2022-09-15T02:12:49.022Z,12.68
2022-09-15T02:13:49.058Z,12.66
2022-09-15T02:14:49.200Z,12.65
2022-09-15T02:15:49.321Z,12.64
2022-09-15T02:16:49.495Z,12.63
2022-09-15T02:17:50.260Z,12.62
2022-09-15T02:18:49.709Z,12.60
2022-09-15T02:19:49.858Z,12.59
2022-09-15T02:20:49.969Z,12.57
2022-09-15T02:21:50.068Z,12.56
2022-09-15T02:22:50.192Z,12.55
2022-09-15T02:23:50.547Z,12.54
2022-09-15T02:24:50.460Z,12.52
2022-09-15T02:25:50.588Z,12.51
2022-09-15T02:26:50.715Z,12.50
2022-09-15T02:27:50.915Z,12.49
2022-09-15T02:28:51.075Z,12.48
2022-09-15T02:29:51.078Z,12.47
2022-09-15T02:30:51.166Z,12.46
2022-09-15T02:31:51.411Z,12.45
2022-09-15T02:32:51.435Z,12.45
2022-09-15T02:33:51.615Z,12.45
2022-09-15T02:34:51.697Z,12.45
2022-09-15T02:35:51.837Z,12.45
2022-09-15T02:36:51.973Z,12.44
2022-09-15T02:37:52.095Z,12.43
2022-09-15T02:38:52.447Z,12.41
2022-09-15T02:39:52.384Z,12.40
2022-09-15T02:40:52.474Z,12.39
2022-09-15T02:41:52.614Z,12.37
2022-09-15T02:42:52.754Z,12.36
2022-09-15T02:43:53.072Z,12.35
2022-09-15T02:44:53.023Z,12.34
2022-09-15T02:45:53.224Z,12.33
2022-09-15T02:46:53.293Z,12.32
2022-09-15T02:47:53.433Z,12.31
2022-09-15T02:48:53.724Z,12.30
2022-09-15T02:49:53.723Z,12.29
2022-09-15T02:50:53.814Z,12.28
2022-09-15T02:51:53.960Z,12.27
2022-09-15T02:52:54.081Z,12.26
2022-09-15T02:53:54.350Z,12.26
2022-09-15T02:54:54.436Z,12.25
2022-09-15T02:55:54.482Z,12.24
2022-09-15T02:56:54.633Z,12.22
2022-09-15T02:57:54.760Z,12.21
2022-09-15T02:58:54.978Z,12.19
2022-09-15T02:59:55.031Z,12.17
2022-09-15T03:00:55.204Z,12.15
2022-09-15T03:01:55.333Z,12.13
2022-09-15T03:02:55.422Z,12.10
2022-09-15T03:03:55.728Z,12.08
2022-09-15T03:04:55.647Z,12.06
2022-09-15T03:05:55.787Z,12.05
2022-09-15T03:06:55.929Z,12.04
2022-09-15T03:07:56.050Z,12.03
2022-09-15T03:08:56.248Z,12.01
2022-09-15T03:09:56.347Z,12.01
2022-09-15T03:10:56.448Z,12.00
2022-09-15T03:11:56.568Z,11.99
2022-09-15T03:12:56.712Z,11.97
2022-09-15T03:13:56.907Z,11.96
2022-09-15T03:14:56.994Z,11.95
2022-09-15T03:15:57.141Z,11.96
2022-09-15T03:16:57.268Z,11.96
2022-09-15T03:17:57.406Z,11.96
2022-09-15T03:18:57.694Z,11.96
2022-09-15T03:19:57.677Z,11.95
2022-09-15T03:20:57.806Z,11.94
2022-09-15T03:21:58.004Z,11.93
2022-09-15T03:22:58.085Z,11.94
2022-09-15T03:23:58.216Z,11.95
2022-09-15T03:24:58.364Z,11.95
2022-09-15T03:25:58.484Z,11.95
2022-09-15T03:26:58.685Z,11.94
2022-09-15T03:27:58.705Z,11.94
2022-09-15T03:28:58.845Z,11.93
2022-09-15T03:29:59.085Z,11.93
2022-09-15T03:30:59.114Z,11.92
2022-09-15T03:31:59.411Z,11.91
2022-09-15T03:32:59.380Z,11.90
2022-09-15T03:33:59.514Z,11.88
2022-09-15T03:34:59.643Z,11.88
2022-09-15T03:35:59.791Z,11.88
2022-09-15T03:37:00.057Z,11.87
2022-09-15T03:38:00.074Z,11.88
2022-09-15T03:39:00.159Z,11.89
2022-09-15T03:40:00.443Z,11.90
2022-09-15T03:41:00.430Z,11.91
2022-09-15T03:42:00.551Z,11.91
2022-09-15T03:43:00.672Z,11.91
2022-09-15T03:44:00.813Z,11.91
2022-09-15T03:45:00.998Z,11.91
2022-09-15T03:46:01.198Z,11.91
2022-09-15T03:47:01.210Z,11.90
2022-09-15T03:48:01.330Z,11.91
2022-09-15T03:49:01.598Z,11.92
2022-09-15T03:50:01.680Z,11.92
2022-09-15T03:51:01.719Z,11.93
2022-09-15T03:52:01.859Z,11.94
2022-09-15T03:53:01.979Z,11.95
2022-09-15T03:54:02.108Z,11.95
2022-09-15T03:55:02.311Z,11.95
2022-09-15T03:56:02.360Z,11.95
2022-09-15T03:57:02.498Z,11.94
2022-09-15T03:58:02.638Z,11.94
2022-09-15T03:59:02.781Z,11.94
2022-09-15T04:00:03.064Z,11.94
2022-09-15T04:01:03.141Z,11.94
2022-09-15T04:02:03.214Z,11.93
2022-09-15T04:03:03.306Z,11.93
2022-09-15T04:04:03.447Z,11.92
2022-09-15T04:05:03.610Z,11.92
2022-09-15T04:06:03.716Z,11.92
2022-09-15T04:07:03.840Z,11.92
2022-09-15T04:08:03.983Z,11.92
2022-09-15T04:09:04.105Z,11.92
2022-09-15T04:10:04.318Z,11.92
2022-09-15T04:11:04.365Z,11.92
2022-09-15T04:12:04.484Z,11.91
2022-09-15T04:13:04.613Z,11.91
2022-09-15T04:14:04.755Z,11.90
2022-09-15T04:15:04.984Z,11.89
2022-09-15T04:16:05.072Z,11.88
2022-09-15T04:17:05.130Z,11.87
2022-09-15T04:18:05.253Z,11.86
2022-09-15T04:19:05.376Z,11.85
2022-09-15T04:20:05.567Z,11.85
2022-09-15T04:21:05.662Z,11.84
2022-09-15T04:22:05.808Z,11.84
2022-09-15T04:23:05.902Z,11.83
2022-09-15T04:24:06.040Z,11.83
2022-09-15T04:25:06.210Z,11.83
2022-09-15T04:26:06.291Z,11.83
2022-09-15T04:27:06.433Z,11.83
2022-09-15T04:28:06.522Z,11.83
2022-09-15T04:29:06.658Z,11.83
2022-09-15T04:30:06.840Z,11.84
2022-09-15T04:31:06.991Z,11.85
2022-09-15T04:32:07.060Z,11.86
2022-09-15T04:33:07.183Z,11.86
2022-09-15T04:34:07.330Z,11.86
2022-09-15T04:35:07.448Z,11.86
2022-09-15T04:36:07.709Z,11.86
2022-09-15T04:37:07.644Z,11.86
2022-09-15T04:38:07.780Z,11.87
2022-09-15T04:39:07.919Z,11.87
2022-09-15T04:40:08.116Z,11.88
2022-09-15T04:41:08.230Z,11.88
2022-09-15T04:42:08.319Z,11.89
2022-09-15T04:43:08.457Z,11.89
2022-09-15T04:44:08.588Z,11.89
2022-09-15T04:45:08.740Z,11.89
2022-09-15T04:46:09.010Z,11.88
2022-09-15T04:47:09.038Z,11.88
2022-09-15T04:48:09.077Z,11.87
2022-09-15T04:49:09.217Z,11.88
2022-09-15T04:50:09.376Z,11.88
2022-09-15T04:51:09.607Z,11.89
2022-09-15T04:52:09.809Z,11.90
2022-09-15T04:53:09.736Z,11.91
2022-09-15T04:54:09.866Z,11.91
2022-09-15T04:55:10.007Z,11.92
2022-09-15T04:56:10.197Z,11.92
2022-09-15T04:57:10.308Z,11.91
2022-09-15T04:58:10.430Z,11.91
2022-09-15T04:59:10.515Z,11.92
2022-09-15T05:00:10.654Z,11.92
2022-09-15T05:01:10.965Z,11.93
2022-09-15T05:02:10.960Z,11.93
2022-09-15T05:03:11.043Z,11.93
2022-09-15T05:04:11.184Z,11.94
2022-09-15T05:05:11.325Z,11.94
2022-09-15T05:06:11.603Z,11.95
2022-09-15T05:07:11.572Z,11.95
2022-09-15T05:08:11.716Z,11.96
2022-09-15T05:09:11.855Z,11.96
2022-09-15T05:10:11.983Z,11.97
2022-09-15T05:11:12.173Z,11.97
2022-09-15T05:12:12.402Z,11.98
2022-09-15T05:13:12.381Z,11.99
2022-09-15T05:14:12.522Z,11.99
2022-09-15T05:15:12.671Z,12.01
2022-09-15T05:16:12.823Z,12.02
2022-09-15T05:17:12.870Z,12.04
2022-09-15T05:18:13.001Z,12.05
2022-09-15T05:19:13.140Z,12.05
2022-09-15T05:20:13.309Z,12.05
2022-09-15T05:21:13.515Z,12.06
2022-09-15T05:22:13.509Z,12.06
2022-09-15T05:23:13.650Z,12.07
2022-09-15T05:24:13.919Z,12.07
2022-09-15T05:25:13.911Z,12.07
2022-09-15T05:26:14.032Z,12.07
2022-09-15T05:27:14.186Z,12.07
2022-09-15T05:28:14.320Z,12.07
2022-09-15T05:29:14.669Z,12.07
2022-09-15T05:30:36.635Z,12.07
2022-09-15T05:31:15.731Z,12.06
2022-09-15T05:32:14.848Z,12.06
2022-09-15T05:33:14.937Z,12.05
2022-09-15T05:34:15.117Z,12.05
2022-09-15T05:35:15.218Z,12.06
2022-09-15T05:36:15.428Z,12.07
2022-09-15T05:37:15.437Z,12.08
2022-09-15T05:38:15.566Z,12.08
2022-09-15T05:39:15.712Z,12.09
2022-09-15T05:40:15.865Z,12.10
2022-09-15T05:41:16.095Z,12.11
2022-09-15T05:42:16.246Z,12.12
2022-09-15T05:43:16.245Z,12.13
2022-09-15T05:44:16.376Z,12.14
2022-09-15T05:45:16.532Z,12.16
2022-09-15T05:46:16.727Z,12.18
2022-09-15T05:47:16.745Z,12.19
2022-09-15T05:48:16.934Z,12.21
2022-09-15T05:49:17.053Z,12.22
2022-09-15T05:50:17.142Z,12.23
2022-09-15T05:51:17.351Z,12.24
2022-09-15T05:52:17.406Z,12.24
2022-09-15T05:53:17.541Z,12.25
2022-09-15T05:54:17.665Z,12.26
2022-09-15T05:55:17.813Z,12.26
2022-09-15T05:56:18.052Z,12.27
2022-09-15T05:57:18.052Z,12.27
2022-09-15T05:58:18.142Z,12.27
2022-09-15T05:59:18.268Z,12.27
2022-09-15T06:00:18.400Z,12.27
2022-09-15T06:01:18.660Z,12.28
2022-09-15T06:02:18.673Z,12.28
2022-09-15T06:03:18.852Z,12.29
2022-09-15T06:04:18.922Z,12.30
2022-09-15T06:05:19.070Z,12.31
2022-09-15T06:06:19.222Z,12.32
2022-09-15T06:07:19.437Z,12.34
2022-09-15T06:08:19.431Z,12.36
2022-09-15T06:09:19.560Z,12.39
2022-09-15T06:10:19.710Z,12.41
2022-09-15T06:11:19.880Z,12.43
2022-09-15T06:12:19.919Z,12.45
2022-09-15T06:13:20.039Z,12.47
2022-09-15T06:14:20.345Z,12.50
2022-09-15T06:15:20.341Z,12.54
2022-09-15T06:16:20.487Z,12.57
2022-09-15T06:17:20.668Z,12.59
2022-09-15T06:18:20.747Z,12.61
2022-09-15T06:19:20.887Z,12.62
2022-09-15T06:20:21.019Z,12.62
2022-09-15T06:21:21.159Z,12.63
2022-09-15T06:22:21.378Z,12.64
2022-09-15T06:23:21.405Z,12.65
2022-09-15T06:24:21.538Z,12.68
2022-09-15T06:25:21.667Z,12.70
2022-09-15T06:26:22.078Z,12.73
2022-09-15T06:27:21.946Z,12.73
2022-09-15T06:28:22.075Z,12.73
2022-09-15T06:29:22.216Z,12.73
2022-09-15T06:30:22.364Z,12.75
2022-09-15T06:31:22.594Z,12.77
2022-09-15T06:32:22.765Z,12.80
2022-09-15T06:33:22.753Z,12.82
2022-09-15T06:34:22.894Z,12.82
2022-09-15T06:35:23.032Z,12.82
2022-09-15T06:36:23.153Z,12.82
2022-09-15T06:37:23.445Z,12.83
2022-09-15T06:38:23.405Z,12.84
2022-09-15T06:39:23.583Z,12.85
2022-09-15T06:40:23.731Z,12.86
2022-09-15T06:41:23.786Z,12.86
2022-09-15T06:42:23.962Z,12.87
2022-09-15T06:43:24.041Z,12.88
2022-09-15T06:44:24.170Z,12.89
2022-09-15T06:45:24.303Z,12.89
2022-09-15T06:46:24.499Z,12.90
2022-09-15T06:47:24.621Z,12.91
2022-09-15T06:48:25.315Z,12.91
2022-09-15T06:49:24.984Z,12.91
2022-09-15T06:50:25.026Z,12.91
2022-09-15T06:51:25.081Z,12.91
2022-09-15T06:52:25.350Z,12.91
2022-09-15T06:53:25.359Z,12.93
2022-09-15T06:54:25.581Z,12.96
2022-09-15T06:55:25.570Z,12.98
2022-09-15T06:56:25.701Z,12.98
2022-09-15T06:57:25.834Z,12.97
2022-09-15T06:58:25.959Z,12.97
2022-09-15T06:59:26.190Z,12.95
2022-09-15T07:00:26.302Z,12.94
2022-09-15T07:01:26.380Z,12.95
2022-09-15T07:02:26.570Z,12.96
2022-09-15T07:03:26.792Z,12.97
2022-09-15T07:04:26.809Z,13.00
2022-09-15T07:05:26.898Z,13.04
2022-09-15T07:06:26.978Z,13.07
2022-09-15T07:07:27.117Z,13.08
2022-09-15T07:08:27.357Z,13.07
2022-09-15T07:09:27.381Z,13.05
2022-09-15T07:10:27.530Z,13.04
2022-09-15T07:11:27.637Z,13.03
2022-09-15T07:12:27.783Z,13.03
2022-09-15T07:13:28.008Z,13.04
2022-09-15T07:14:28.048Z,13.06
2022-09-15T07:15:28.175Z,13.09
2022-09-15T07:16:28.326Z,13.11
2022-09-15T07:17:28.366Z,13.13
2022-09-15T07:18:28.627Z,13.15
2022-09-15T07:19:28.616Z,13.15
2022-09-15T07:20:28.777Z,13.16
2022-09-15T07:21:28.869Z,13.17
2022-09-15T07:22:28.995Z,13.18
2022-09-15T07:23:29.203Z,13.17
2022-09-15T07:24:29.414Z,13.16
2022-09-15T07:25:29.407Z,13.15
2022-09-15T07:26:29.539Z,13.14
2022-09-15T07:27:29.674Z,13.15
2022-09-15T07:28:29.944Z,13.18
2022-09-15T07:29:29.933Z,13.21
2022-09-15T07:30:30.073Z,13.22
2022-09-15T07:31:30.278Z,13.23
2022-09-15T07:32:30.366Z,13.25
2022-09-15T07:33:30.512Z,13.28
2022-09-15T07:34:30.582Z,13.32
2022-09-15T07:35:35.979Z,13.36
2022-09-15T07:36:30.822Z,13.40
2022-09-15T07:37:30.951Z,13.45
2022-09-15T07:38:31.087Z,13.49
2022-09-15T07:39:31.222Z,13.52
2022-09-15T07:40:31.508Z,13.53
2022-09-15T07:41:31.461Z,13.53
2022-09-15T07:42:35.287Z,13.53
2022-09-15T07:43:31.828Z,13.52
2022-09-15T07:44:31.842Z,13.51
2022-09-15T07:45:32.082Z,13.50
2022-09-15T07:46:32.121Z,13.50
2022-09-15T07:47:32.200Z,13.51
2022-09-15T07:48:32.540Z,13.51
2022-09-15T07:49:32.494Z,13.51
2022-09-15T07:50:32.586Z,13.53
2022-09-15T07:51:32.700Z,13.56
2022-09-15T07:52:32.829Z,13.59
2022-09-15T07:53:33.201Z,13.63
2022-09-15T07:54:33.089Z,13.65
2022-09-15T07:55:33.248Z,13.67
2022-09-15T07:56:33.360Z,13.71
2022-09-15T07:57:33.498Z,13.75
2022-09-15T07:58:33.746Z,13.78
2022-09-15T07:59:34.917Z,13.80
2022-09-15T08:00:33.964Z,13.83
2022-09-15T08:01:34.062Z,13.86
2022-09-15T08:02:34.168Z,13.90
2022-09-15T08:03:34.377Z,13.93
2022-09-15T08:04:34.396Z,13.94
2022-09-15T08:05:38.654Z,13.95
2022-09-15T08:06:35.647Z,13.95
2022-09-15T08:07:34.783Z,13.95
2022-09-15T08:08:34.937Z,13.96
2022-09-15T08:09:35.036Z,13.96
2022-09-15T08:10:35.166Z,13.97
2022-09-15T08:11:35.307Z,13.97
2022-09-15T08:12:35.446Z,13.97
2022-09-15T08:13:35.625Z,13.96
2022-09-15T08:14:35.705Z,13.96
2022-09-15T08:15:35.855Z,13.96
2022-09-15T08:16:35.980Z,13.97
2022-09-15T08:17:36.086Z,14.00
2022-09-15T08:18:36.233Z,14.01
2022-09-15T08:19:36.423Z,14.01
2022-09-15T08:20:36.444Z,14.01
2022-09-15T08:21:36.584Z,14.01
2022-09-15T08:22:36.724Z,14.01
2022-09-15T08:23:36.874Z,14.02
2022-09-15T08:24:37.053Z,14.04
2022-09-15T08:25:37.103Z,14.06
2022-09-15T08:26:37.264Z,14.07
2022-09-15T08:27:37.362Z,14.05
2022-09-15T08:28:37.504Z,14.03
2022-09-15T08:29:37.696Z,14.02
2022-09-15T08:30:37.802Z,14.02
2022-09-15T08:31:37.928Z,14.03
2022-09-15T08:32:38.044Z,14.04
2022-09-15T08:33:41.835Z,14.06
2022-09-15T08:34:39.321Z,14.07
2022-09-15T08:35:38.454Z,14.07
2022-09-15T08:36:38.583Z,14.09
2022-09-15T08:37:38.730Z,14.10
2022-09-15T08:38:38.873Z,14.12
2022-09-15T08:39:39.034Z,14.14
2022-09-15T08:40:39.139Z,14.18
2022-09-15T08:41:39.572Z,14.22
2022-09-15T08:42:44.206Z,14.24
2022-09-15T08:43:40.629Z,14.25
2022-09-15T08:44:39.699Z,14.27
2022-09-15T08:45:39.843Z,14.29
2022-09-15T08:46:40.182Z,14.30
2022-09-15T08:47:40.160Z,14.31
2022-09-15T08:48:40.244Z,14.32
2022-09-15T08:49:51.446Z,14.31
2022-09-15T08:50:41.589Z,14.31
2022-09-15T08:51:40.609Z,14.32
2022-09-15T08:52:40.751Z,14.34
2022-09-15T08:53:40.943Z,14.38
2022-09-15T08:54:41.016Z,14.41
2022-09-15T08:55:41.197Z,14.44
2022-09-15T08:56:41.290Z,14.48
2022-09-15T08:57:41.436Z,14.52
2022-09-15T08:58:41.568Z,14.55
2022-09-15T08:59:41.717Z,14.56
2022-09-15T09:01:57.625Z,15.53
2022-09-15T09:02:57.644Z,15.10
2022-09-15T09:03:57.761Z,14.86
2022-09-15T09:04:57.811Z,14.76
2022-09-15T09:05:58.143Z,14.72
2022-09-15T09:06:58.061Z,14.73
2022-09-15T09:07:58.199Z,14.78
2022-09-15T09:08:58.344Z,14.85
2022-09-15T09:09:58.468Z,14.92
2022-09-15T09:10:58.819Z,14.93
2022-09-15T09:11:58.749Z,14.90
2022-09-15T09:12:58.879Z,14.87
2022-09-15T09:13:59.006Z,14.84
2022-09-15T09:14:59.146Z,14.82
2022-09-15T09:15:59.444Z,14.81
2022-09-15T09:16:59.407Z,14.80
2022-09-15T09:17:59.549Z,14.81
2022-09-15T09:18:59.687Z,14.84
2022-09-15T09:19:59.827Z,14.87
2022-09-15T09:21:00.073Z,14.88
2022-09-15T09:22:00.267Z,14.89
2022-09-15T09:23:00.369Z,14.92
2022-09-15T09:24:00.355Z,14.98
2022-09-15T09:25:05.894Z,15.06
2022-09-15T09:26:01.608Z,15.13
2022-09-15T09:27:00.772Z,15.18
2022-09-15T09:28:01.036Z,15.23
2022-09-15T09:29:01.133Z,15.28
2022-09-15T09:30:01.157Z,15.33
2022-09-15T09:31:01.332Z,15.35
2022-09-15T09:32:01.389Z,15.33
2022-09-15T09:33:01.697Z,15.32
2022-09-15T09:34:01.686Z,15.32
2022-09-15T09:35:01.815Z,15.33
2022-09-15T09:36:01.945Z,15.36
2022-09-15T09:37:02.083Z,15.39
2022-09-15T09:38:02.315Z,15.42
2022-09-15T09:39:02.462Z,15.42
2022-09-15T09:40:02.528Z,15.42
2022-09-15T09:41:02.895Z,15.42
2022-09-15T09:42:02.765Z,15.44
2022-09-15T09:43:03.083Z,15.48
2022-09-15T09:44:03.102Z,15.48
2022-09-15T09:45:03.122Z,15.47
2022-09-15T09:46:03.308Z,15.46
2022-09-15T09:47:03.403Z,15.46
2022-09-15T09:48:03.532Z,15.45
2022-09-15T09:49:03.873Z,15.43
2022-09-15T09:50:03.783Z,15.42
2022-09-15T09:51:03.932Z,15.42
2022-09-15T09:52:04.062Z,15.43
2022-09-15T09:53:04.182Z,15.44
2022-09-15T09:54:04.453Z,15.44
2022-09-15T09:55:04.513Z,15.45
2022-09-15T09:56:04.555Z,15.46
2022-09-15T09:57:04.702Z,15.46
2022-09-15T09:58:04.861Z,15.48
2022-09-15T09:59:04.953Z,15.50
2022-09-15T10:00:05.161Z,15.53
2022-09-15T10:01:05.290Z,15.55
2022-09-15T10:02:05.352Z,15.58
2022-09-15T10:03:05.492Z,15.62
2022-09-15T10:04:05.621Z,15.64
2022-09-15T10:05:06.083Z,15.66
2022-09-15T10:06:05.911Z,15.67
2022-09-15T10:07:06.061Z,15.67
2022-09-15T10:08:06.194Z,15.68
2022-09-15T10:09:06.300Z,15.70
2022-09-15T10:10:06.651Z,15.71
2022-09-15T10:11:06.833Z,15.71
2022-09-15T10:12:06.632Z,15.69
2022-09-15T10:13:06.781Z,15.69
2022-09-15T10:14:06.920Z,15.72
2022-09-15T10:15:07.080Z,15.77
2022-09-15T10:16:07.259Z,15.83
2022-09-15T10:17:07.373Z,15.88
2022-09-15T10:18:07.408Z,15.92
2022-09-15T10:19:07.528Z,15.96
2022-09-15T10:20:07.729Z,16.00
2022-09-15T10:21:07.750Z,16.06
2022-09-15T10:22:07.960Z,16.16
2022-09-15T10:23:08.028Z,16.25
2022-09-15T10:24:08.119Z,16.34
2022-09-15T10:25:08.278Z,16.44
2022-09-15T10:26:08.358Z,16.55
2022-09-15T10:27:08.618Z,16.66
2022-09-15T10:28:08.758Z,16.75
2022-09-15T10:29:08.748Z,16.80
2022-09-15T10:30:08.838Z,16.80
2022-09-15T10:31:08.977Z,16.77
2022-09-15T10:32:09.086Z,16.73
2022-09-15T10:33:09.237Z,16.71
2022-09-15T10:34:09.537Z,16.71
2022-09-15T10:35:09.466Z,16.70
2022-09-15T10:36:09.596Z,16.70
2022-09-15T10:37:09.838Z,16.73
2022-09-15T10:38:09.900Z,16.77
2022-09-15T10:39:09.986Z,16.82
2022-09-15T10:40:10.169Z,16.88
2022-09-15T10:41:10.286Z,16.94
2022-09-15T10:42:10.412Z,17.02
2022-09-15T10:43:10.506Z,17.12
2022-09-15T10:44:10.656Z,17.25
2022-09-15T10:45:10.808Z,17.40
2022-09-15T10:46:10.958Z,17.52
2022-09-15T10:47:11.417Z,17.58
2022-09-15T10:48:11.145Z,17.58
2022-09-15T10:49:11.235Z,17.53
2022-09-15T10:50:11.528Z,17.49
2022-09-15T10:51:11.515Z,17.51
2022-09-15T10:52:11.656Z,17.57
2022-09-15T10:53:11.795Z,17.63
2022-09-15T10:54:11.944Z,17.70
2022-09-15T10:55:12.166Z,17.75
2022-09-15T10:56:12.156Z,17.72
2022-09-15T10:57:12.365Z,17.61
2022-09-15T10:58:12.404Z,17.49
2022-09-15T10:59:12.545Z,17.41
2022-09-15T11:00:12.694Z,17.36
2022-09-15T11:01:12.962Z,17.34
2022-09-15T11:02:12.953Z,17.33
2022-09-15T11:03:13.063Z,17.32
2022-09-15T11:04:13.207Z,17.29
2022-09-15T11:05:13.314Z,17.27
2022-09-15T11:06:13.539Z,17.26
2022-09-15T11:07:13.514Z,17.28
2022-09-15T11:08:13.652Z,17.34
2022-09-15T11:09:13.836Z,17.43
2022-09-15T11:10:13.920Z,17.53
2022-09-15T11:11:14.082Z,17.61
2022-09-15T11:12:14.363Z,17.62
2022-09-15T11:13:14.303Z,17.56
2022-09-15T11:14:14.445Z,17.48
2022-09-15T11:15:14.616Z,17.44
2022-09-15T11:16:14.730Z,17.46
2022-09-15T11:17:15.115Z,17.50
2022-09-15T11:18:14.953Z,17.54
2022-09-15T11:19:15.073Z,17.61
2022-09-15T11:20:15.172Z,17.65
2022-09-15T11:21:15.314Z,17.68
2022-09-15T11:22:15.492Z,17.66
2022-09-15T11:23:15.633Z,17.61
2022-09-15T11:24:15.702Z,17.59
2022-09-15T11:25:15.812Z,17.61
2022-09-15T11:26:15.973Z,17.65
2022-09-15T11:27:16.173Z,17.70
2022-09-15T11:28:16.321Z,17.72
2022-09-15T11:29:16.483Z,17.71
2022-09-15T11:30:16.444Z,17.66
2022-09-15T11:31:16.586Z,17.61
2022-09-15T11:32:16.791Z,17.55
2022-09-15T11:33:16.799Z,17.53
2022-09-15T11:34:16.901Z,17.57
2022-09-15T11:35:17.032Z,17.66
2022-09-15T11:36:17.171Z,17.80
2022-09-15T11:37:17.331Z,17.94
2022-09-15T11:38:17.410Z,18.07
2022-09-15T11:39:17.550Z,18.19
2022-09-15T11:40:17.760Z,18.36
2022-09-15T11:41:17.791Z,18.57
2022-09-15T11:42:18.030Z,18.72
2022-09-15T11:43:17.998Z,18.77
2022-09-15T11:44:18.132Z,18.73
2022-09-15T11:45:18.371Z,18.65
2022-09-15T11:46:18.468Z,18.55
2022-09-15T11:47:18.560Z,18.45
2022-09-15T11:48:18.639Z,18.34
2022-09-15T11:49:18.789Z,18.21
2022-09-15T11:50:18.980Z,18.10
2022-09-15T11:51:19.020Z,18.02
2022-09-15T11:52:19.159Z,17.97
2022-09-15T11:53:19.308Z,17.91
2022-09-15T11:54:19.409Z,17.86
2022-09-15T11:56:35.142Z,18.75
2022-09-15T11:57:35.172Z,18.33
2022-09-15T11:58:35.301Z,18.05
2022-09-15T11:59:35.461Z,17.85
2022-09-15T12:00:35.560Z,17.66
2022-09-15T12:01:35.800Z,17.52
2022-09-15T12:02:35.842Z,17.41
2022-09-15T12:03:35.920Z,17.33
2022-09-15T12:04:36.009Z,17.28
2022-09-15T12:05:36.139Z,17.24
2022-09-15T12:06:36.320Z,17.20
2022-09-15T12:07:36.379Z,17.14
2022-09-15T12:08:36.585Z,17.08
2022-09-15T12:09:36.679Z,17.05
2022-09-15T12:10:36.779Z,17.03
2022-09-15T12:11:36.960Z,17.00
2022-09-15T12:12:37.016Z,16.95
2022-09-15T12:13:37.353Z,16.91
2022-09-15T12:14:37.276Z,16.89
2022-09-15T12:15:37.446Z,16.90
2022-09-15T12:16:37.524Z,16.94
2022-09-15T12:17:37.659Z,16.99
2022-09-15T12:18:40.759Z,17.10
2022-09-15T12:19:37.917Z,17.25
2022-09-15T12:20:38.057Z,17.42
2022-09-15T12:21:38.207Z,17.60
2022-09-15T12:22:38.298Z,17.74
2022-09-15T12:23:59.496Z,17.85
2022-09-15T12:24:38.588Z,17.93
2022-09-15T12:25:38.707Z,18.00
2022-09-15T12:26:38.817Z,18.09
2022-09-15T12:27:38.916Z,18.17
2022-09-15T12:28:39.029Z,18.27
2022-09-15T12:30:00.193Z,18.42
2022-09-15T12:30:39.262Z,18.53
2022-09-15T12:31:39.476Z,18.56
2022-09-15T12:32:39.465Z,18.56
2022-09-15T12:33:39.606Z,18.54
2022-09-15T12:34:39.736Z,18.53
2022-09-15T12:35:40.006Z,18.54
2022-09-15T12:36:40.027Z,18.56
2022-09-15T12:37:40.136Z,18.56
2022-09-15T12:38:40.235Z,18.56
2022-09-15T12:39:40.375Z,18.55
2022-09-15T12:40:40.616Z,18.50
2022-09-15T12:41:40.605Z,18.43
2022-09-15T12:42:40.725Z,18.35
2022-09-15T12:43:40.846Z,18.27
2022-09-15T12:44:40.965Z,18.17
2022-09-15T12:46:02.179Z,18.04
2022-09-15T12:46:41.235Z,17.89
2022-09-15T12:47:41.303Z,17.75
2022-09-15T12:48:45.557Z,17.65
2022-09-15T12:49:42.544Z,17.59
2022-09-15T12:50:41.697Z,17.56
2022-09-15T12:51:41.874Z,17.52
2022-09-15T12:52:41.918Z,17.49
2022-09-15T12:53:43.430Z,17.47
2022-09-15T12:54:42.124Z,17.44
2022-09-15T12:55:42.274Z,17.42
2022-09-15T12:56:42.443Z,17.43